createdAt,value
2023-05-25T00:00:57.423Z,46.68
2023-05-25T00:04:21.457Z,44.83
2023-05-25T00:07:26.896Z,41.05
2023-05-25T00:10:30.959Z,35.76
2023-05-25T00:13:34.518Z,33.29
2023-05-25T00:16:43.743Z,34.79
2023-05-25T00:19:48.764Z,35.44
2023-05-25T00:23:14.632Z,36.30
2023-05-25T00:26:32.486Z,35.33
2023-05-25T00:29:42.507Z,35.14
2023-05-25T00:32:49.039Z,33.35
2023-05-25T00:36:04.818Z,35.06
2023-05-25T00:39:39.468Z,36.43
2023-05-25T00:42:46.632Z,38.41
2023-05-25T00:45:55.370Z,38.86
2023-05-25T00:49:25.855Z,40.55
2023-05-25T00:52:53.491Z,40.15
2023-05-25T00:56:33.496Z,40.70
2023-05-25T01:00:12.891Z,40.85
2023-05-25T01:03:23.760Z,39.99
2023-05-25T01:06:47.283Z,41.05
2023-05-25T01:10:16.823Z,41.84
2023-05-25T01:13:51.457Z,39.70
2023-05-25T01:17:03.737Z,39.78
2023-05-25T01:20:12.035Z,39.74
2023-05-25T01:23:18.488Z,39.34
2023-05-25T01:26:53.672Z,39.03
2023-05-25T01:30:29.210Z,39.97
2023-05-25T01:33:34.408Z,39.89
2023-05-25T01:36:55.033Z,39.80
2023-05-25T01:39:59.284Z,40.50
2023-05-25T01:43:06.453Z,37.75
2023-05-25T01:46:42.029Z,38.01
2023-05-25T01:59:21.748Z,36.68
2023-05-25T02:03:04.765Z,36.81
2023-05-25T02:06:26.481Z,36.65
2023-05-25T02:09:31.429Z,35.83
2023-05-25T02:12:54.646Z,37.01
2023-05-25T02:21:02.184Z,35.40
2023-05-25T02:28:27.596Z,35.80
2023-05-25T02:31:35.472Z,35.31
2023-05-25T02:34:59.764Z,34.44
2023-05-25T02:42:14.510Z,34.07
2023-05-25T02:49:45.682Z,31.24
2023-05-25T02:49:52.753Z,32.60
2023-05-25T02:53:04.892Z,30.77
2023-05-25T02:56:50.918Z,30.68
2023-05-25T03:11:43.789Z,28.98
2023-05-25T03:15:10.542Z,26.93
2023-05-25T03:22:08.830Z,26.98
2023-05-25T03:25:25.605Z,26.71
2023-05-25T03:28:29.442Z,26.86
2023-05-25T03:31:47.754Z,26.98
2023-05-25T03:34:57.209Z,27.03
2023-05-25T03:38:05.277Z,26.31
2023-05-25T03:41:10.158Z,26.30
2023-05-25T03:44:40.492Z,26.42
2023-05-25T03:48:08.799Z,24.70
2023-05-25T03:51:12.854Z,25.20
2023-05-25T03:54:23.063Z,25.49
2023-05-25T03:57:35.812Z,26.25
2023-05-25T04:00:52.371Z,26.17
2023-05-25T04:04:26.788Z,26.40
2023-05-25T04:11:15.607Z,26.22
2023-05-25T04:14:28.026Z,26.70
2023-05-25T04:17:39.368Z,26.46
2023-05-25T04:20:47.686Z,26.51
2023-05-25T04:23:52.754Z,25.71
2023-05-25T04:27:15.113Z,25.61
2023-05-25T04:30:29.190Z,26.17
2023-05-25T04:33:54.115Z,25.52
2023-05-25T04:37:14.583Z,26.88
2023-05-25T04:40:20.875Z,26.16
2023-05-25T04:43:26.950Z,26.73
2023-05-25T04:46:37.123Z,26.87
2023-05-25T04:49:44.011Z,26.61
2023-05-25T04:52:54.354Z,26.83
2023-05-25T04:56:01.024Z,26.76
2023-05-25T04:59:07.482Z,26.84
2023-05-25T05:05:46.079Z,25.84
2023-05-25T05:08:55.515Z,26.23
2023-05-25T05:12:02.276Z,25.93
2023-05-25T05:19:06.809Z,26.59
2023-05-25T05:22:14.161Z,26.44
2023-05-25T05:25:17.995Z,25.43
2023-05-25T05:28:22.606Z,25.18
2023-05-25T05:31:29.856Z,25.65
2023-05-25T05:34:37.125Z,25.09
2023-05-25T05:37:45.456Z,25.54
2023-05-25T05:40:51.571Z,25.31
2023-05-25T05:43:59.886Z,25.24
2023-05-25T05:47:04.553Z,25.06
2023-05-25T05:50:09.159Z,25.05
2023-05-25T05:53:16.420Z,24.89
2023-05-25T05:56:24.066Z,25.26
2023-05-25T05:59:28.138Z,25.42
2023-05-25T06:02:33.022Z,25.43
2023-05-25T06:05:37.604Z,25.71
2023-05-25T06:08:44.851Z,25.77
2023-05-25T06:11:49.631Z,26.11
2023-05-25T06:14:54.283Z,26.73
2023-05-25T06:18:09.568Z,25.78
2023-05-25T06:21:13.832Z,25.37
2023-05-25T06:24:17.599Z,25.21
2023-05-25T06:27:21.666Z,24.94
2023-05-25T06:30:25.497Z,23.59
2023-05-25T06:33:34.050Z,24.60
2023-05-25T06:36:43.262Z,23.40
2023-05-25T06:39:50.200Z,23.56
2023-05-25T06:46:24.461Z,23.14
2023-05-25T06:49:30.778Z,22.75
2023-05-25T06:52:34.717Z,22.23
2023-05-25T06:55:38.634Z,21.85
2023-05-25T06:58:45.970Z,21.61
2023-05-25T07:02:01.768Z,21.70
2023-05-25T07:05:08.223Z,21.99
2023-05-25T07:08:12.975Z,22.93
2023-05-25T07:11:16.814Z,22.21
2023-05-25T07:14:30.637Z,21.80
2023-05-25T07:17:47.425Z,22.38
2023-05-25T07:20:52.852Z,22.16
2023-05-25T07:23:56.759Z,21.89
2023-05-25T07:27:04.459Z,21.80
2023-05-25T07:30:08.751Z,22.06
2023-05-25T07:33:15.697Z,21.85
2023-05-25T07:36:25.691Z,21.55
2023-05-25T07:39:30.709Z,21.32
2023-05-25T07:42:45.695Z,21.48
2023-05-25T07:49:19.775Z,22.41
2023-05-25T07:52:40.199Z,22.71
2023-05-25T07:55:45.454Z,22.42
2023-05-25T07:58:52.232Z,22.59
2023-05-25T08:01:55.947Z,22.15
2023-05-25T08:05:00.690Z,22.53
2023-05-25T08:11:27.337Z,22.88
2023-05-25T08:14:31.712Z,22.66
2023-05-25T08:17:35.582Z,22.57
2023-05-25T08:20:58.149Z,21.14
2023-05-25T08:24:06.087Z,20.21
2023-05-25T08:27:17.892Z,20.35
2023-05-25T08:30:30.287Z,20.22
2023-05-25T08:33:39.320Z,19.66
2023-05-25T08:36:55.043Z,19.29
2023-05-25T08:39:58.837Z,19.69
2023-05-25T08:43:06.698Z,20.22
2023-05-25T08:46:35.632Z,20.53
2023-05-25T08:49:42.992Z,21.13
2023-05-25T08:52:48.033Z,20.84
2023-05-25T08:55:57.104Z,21.41
2023-05-25T09:06:37.846Z,19.48
2023-05-25T09:09:44.301Z,19.99
2023-05-25T09:12:49.049Z,20.19
2023-05-25T09:15:57.056Z,21.21
2023-05-25T09:22:20.828Z,20.50
2023-05-25T09:25:31.160Z,20.10
2023-05-25T09:28:34.781Z,19.60
2023-05-25T09:31:40.428Z,19.64
2023-05-25T09:34:49.080Z,19.68
2023-05-25T09:38:02.609Z,19.26
2023-05-25T09:41:08.127Z,20.15
2023-05-25T09:44:12.327Z,19.94
2023-05-25T09:47:18.170Z,19.89
2023-05-25T09:50:28.288Z,20.54
2023-05-25T09:53:38.550Z,20.90
2023-05-25T09:56:43.555Z,20.69
2023-05-25T09:59:49.133Z,20.65
2023-05-25T10:02:54.757Z,21.16
2023-05-25T10:06:02.773Z,20.44
2023-05-25T10:09:13.174Z,21.00
2023-05-25T10:12:21.181Z,21.09
2023-05-25T10:15:25.293Z,21.54
2023-05-25T10:18:40.811Z,21.58
2023-05-25T10:21:53.770Z,21.96
2023-05-25T10:25:27.845Z,22.52
2023-05-25T10:28:40.631Z,23.03
2023-05-25T10:31:45.007Z,23.67
2023-05-25T10:38:16.654Z,23.68
2023-05-25T10:41:37.374Z,24.25
2023-05-25T10:45:03.005Z,25.15
2023-05-25T10:48:09.225Z,25.15
2023-05-25T11:02:21.899Z,25.75
2023-05-25T11:05:31.607Z,25.47
2023-05-25T11:08:57.706Z,26.39
2023-05-25T11:15:34.722Z,26.32
2023-05-25T11:22:44.314Z,25.99
2023-05-25T11:25:55.143Z,26.24
2023-05-25T11:32:28.379Z,26.69
2023-05-25T11:35:52.923Z,26.37
2023-05-25T11:39:16.885Z,26.67
2023-05-25T11:49:50.072Z,27.04
2023-05-25T11:52:59.431Z,26.83
2023-05-25T11:56:08.119Z,26.62
2023-05-25T12:03:02.068Z,26.88
2023-05-25T12:06:22.949Z,27.13
2023-05-25T12:09:33.249Z,26.25
2023-05-25T12:13:05.892Z,26.54
2023-05-25T12:19:42.680Z,28.73
2023-05-25T12:22:49.897Z,29.37
2023-05-25T12:26:11.618Z,28.54
2023-05-25T12:29:19.994Z,28.74
2023-05-25T12:35:57.444Z,28.13
2023-05-25T12:53:53.308Z,29.38
2023-05-25T13:00:41.050Z,30.06
2023-05-25T13:07:50.950Z,29.41
2023-05-25T13:24:23.306Z,29.67
2023-05-25T13:27:32.572Z,29.77
2023-05-25T13:30:39.811Z,29.63
2023-05-25T13:33:45.267Z,29.76
2023-05-25T13:44:20.781Z,30.24
2023-05-25T13:47:28.627Z,30.15
2023-05-25T13:50:33.568Z,29.97
2023-05-25T14:00:17.070Z,29.27
2023-05-25T14:03:21.011Z,29.53
2023-05-25T14:06:29.614Z,30.05
2023-05-25T14:09:33.428Z,29.62
2023-05-25T14:15:54.000Z,30.00
2023-05-25T14:18:58.166Z,30.43
2023-05-25T14:22:12.360Z,30.73
2023-05-25T14:25:17.691Z,30.90
2023-05-25T14:28:21.566Z,30.43
2023-05-25T14:31:25.526Z,30.40
2023-05-25T14:34:29.643Z,30.41
2023-05-25T14:37:33.319Z,30.68
2023-05-25T14:40:42.199Z,30.86
2023-05-25T14:43:46.222Z,31.06
2023-05-25T14:46:49.892Z,30.91
2023-05-25T14:49:54.469Z,31.02
2023-05-25T14:52:58.152Z,31.67
2023-05-25T14:56:03.467Z,31.84
2023-05-25T14:59:07.118Z,32.10
2023-05-25T15:02:10.664Z,32.39
2023-05-25T15:05:14.424Z,32.55
2023-05-25T15:08:21.321Z,32.68
2023-05-25T15:11:25.431Z,32.73
2023-05-25T15:14:31.205Z,33.05
2023-05-25T15:17:34.824Z,33.13
2023-05-25T15:20:38.661Z,33.26
2023-05-25T15:23:42.529Z,33.64
2023-05-25T15:26:46.257Z,33.81
2023-05-25T15:29:49.819Z,33.93
2023-05-25T15:32:53.464Z,34.14
2023-05-25T15:35:57.074Z,34.42
2023-05-25T15:39:02.606Z,34.88
2023-05-25T15:42:06.460Z,35.39
2023-05-25T15:45:14.044Z,35.74
2023-05-25T15:48:17.683Z,36.19
2023-05-25T15:51:21.955Z,36.53
2023-05-25T15:54:26.451Z,36.82
2023-05-25T15:57:30.044Z,37.20
2023-05-25T16:00:33.848Z,37.74
2023-05-25T16:03:37.619Z,38.05
2023-05-25T16:06:41.604Z,38.28
2023-05-25T16:09:50.853Z,38.44
2023-05-25T16:12:54.348Z,38.83
2023-05-25T16:15:58.038Z,39.19
2023-05-25T16:19:04.022Z,39.76
2023-05-25T16:22:07.684Z,39.94
2023-05-25T16:25:12.319Z,39.80
2023-05-25T16:28:16.169Z,39.96
2023-05-25T16:31:24.200Z,40.27
2023-05-25T16:38:20.649Z,40.54
2023-05-25T16:41:24.483Z,40.99
2023-05-25T16:44:35.223Z,41.42
2023-05-25T16:47:38.958Z,41.39
2023-05-25T16:50:42.700Z,41.57
2023-05-25T16:53:46.600Z,41.68
2023-05-25T17:00:29.919Z,42.15
2023-05-25T17:04:14.496Z,42.38
2023-05-25T17:07:29.275Z,42.00
2023-05-25T17:10:35.429Z,42.01
2023-05-25T17:13:49.691Z,42.32
2023-05-25T17:16:53.826Z,42.29
2023-05-25T17:20:03.128Z,42.41
2023-05-25T17:23:10.436Z,42.29
2023-05-25T17:30:19.218Z,42.52
2023-05-25T17:33:22.861Z,42.18
2023-05-25T17:36:26.848Z,42.13
2023-05-25T17:40:04.233Z,42.46
2023-05-25T17:47:57.049Z,42.64
2023-05-25T17:51:04.221Z,42.79
2023-05-25T17:54:07.952Z,42.83
2023-05-25T17:57:11.849Z,43.21
2023-05-25T18:00:17.791Z,43.61
2023-05-25T18:03:32.775Z,42.36
2023-05-25T18:06:38.000Z,43.07
2023-05-25T18:13:27.826Z,43.92
2023-05-25T18:16:40.051Z,43.69
2023-05-25T18:19:44.092Z,43.66
2023-05-25T18:22:49.885Z,44.01
2023-05-25T18:25:54.137Z,43.68
2023-05-25T18:28:58.001Z,43.80
2023-05-25T18:32:14.357Z,43.81
2023-05-25T18:35:24.158Z,44.07
2023-05-25T18:38:41.250Z,44.67
2023-05-25T18:41:54.215Z,44.17
2023-05-25T18:45:07.162Z,44.34
2023-05-25T18:48:11.301Z,44.64
2023-05-25T18:51:16.622Z,44.68
2023-05-25T18:54:24.300Z,44.72
2023-05-25T18:57:40.181Z,44.96
2023-05-25T19:01:11.811Z,45.04
2023-05-25T19:04:32.873Z,45.56
2023-05-25T19:07:58.185Z,45.28
2023-05-25T19:11:35.644Z,46.48
2023-05-25T19:14:46.248Z,46.62
2023-05-25T19:17:50.948Z,46.81
2023-05-25T19:20:54.697Z,47.20
2023-05-25T19:24:19.750Z,47.33
2023-05-25T19:27:27.460Z,47.68
2023-05-25T19:30:40.568Z,47.85
2023-05-25T19:34:03.065Z,48.21
2023-05-25T19:46:21.485Z,48.83
2023-05-25T19:49:25.393Z,49.05
2023-05-25T19:50:25.027Z,48.53
2023-05-25T19:52:36.893Z,48.78
2023-05-25T19:55:43.707Z,48.60
2023-05-25T19:58:52.531Z,48.31
2023-05-25T20:01:56.374Z,48.23
2023-05-25T20:05:03.256Z,48.44
2023-05-25T20:08:42.242Z,48.44
2023-05-25T20:11:44.220Z,48.70
2023-05-25T20:14:48.145Z,49.13
2023-05-25T20:17:52.480Z,49.27
2023-05-25T20:20:56.340Z,49.12
2023-05-25T20:24:17.194Z,49.36
2023-05-25T20:27:23.981Z,49.76
2023-05-25T20:30:32.096Z,49.83
2023-05-25T20:33:56.372Z,50.19
2023-05-25T20:37:02.449Z,49.95
2023-05-25T20:40:36.693Z,50.26
2023-05-25T20:43:56.563Z,50.17
2023-05-25T20:48:33.573Z,50.14
2023-05-25T20:51:57.248Z,50.36
2023-05-25T20:55:09.561Z,50.44
2023-05-25T20:58:16.121Z,50.43
2023-05-25T21:01:39.225Z,50.17
2023-05-25T21:04:42.950Z,50.05
2023-05-25T21:07:49.974Z,49.95
2023-05-25T21:11:03.902Z,49.89
2023-05-25T21:14:10.286Z,49.55
2023-05-25T21:17:29.370Z,49.47
2023-05-25T21:20:38.425Z,49.42
2023-05-25T21:23:55.994Z,48.93
2023-05-25T21:27:24.551Z,48.92
2023-05-25T21:30:30.933Z,48.82
2023-05-25T21:33:48.064Z,48.79
2023-05-25T21:40:30.463Z,48.52
2023-05-25T21:43:42.393Z,48.53
2023-05-25T21:46:46.198Z,48.47
2023-05-25T21:49:50.663Z,48.28
2023-05-25T21:53:01.659Z,48.26
2023-05-25T21:56:05.290Z,47.76
2023-05-25T21:59:08.891Z,47.47
2023-05-25T22:02:14.029Z,47.33
2023-05-25T22:05:20.878Z,46.94
2023-05-25T22:08:34.735Z,46.88
2023-05-25T22:11:39.612Z,45.61
2023-05-25T22:14:49.396Z,39.91
2023-05-25T22:22:37.855Z,34.06
2023-05-25T22:26:16.804Z,31.11
2023-05-25T22:29:32.357Z,27.87
2023-05-25T22:36:48.531Z,23.40
2023-05-25T22:43:30.143Z,22.65
2023-05-25T22:47:10.147Z,21.69
2023-05-25T22:50:19.454Z,20.83
2023-05-25T22:53:53.234Z,20.58
2023-05-25T23:03:56.879Z,19.45
2023-05-25T23:32:55.791Z,18.45
2023-05-25T23:36:10.803Z,18.41
2023-05-25T23:39:19.064Z,19.13
2023-05-25T23:42:32.830Z,18.97
2023-05-25T23:45:54.883Z,19.49
2023-05-25T23:59:58.391Z,21.12
